createdAt,value
2023-01-13T00:01:26.036Z,10.63
2023-01-13T00:03:53.129Z,8.75
2023-01-13T00:06:25.813Z,12.18
2023-01-13T00:08:53.534Z,8.65
2023-01-13T00:11:20.820Z,15.70
2023-01-13T00:13:47.964Z,12.70
2023-01-13T00:16:17.581Z,11.00
2023-01-13T00:18:45.550Z,12.40
2023-01-13T00:21:18.353Z,12.30
2023-01-13T00:23:46.171Z,8.65
2023-01-13T00:26:18.245Z,16.15
2023-01-13T00:28:45.530Z,11.52
2023-01-13T00:31:15.358Z,16.13
2023-01-13T00:33:43.098Z,14.07
2023-01-13T00:36:13.054Z,13.18
2023-01-13T00:38:42.888Z,7.85
2023-01-13T00:41:24.001Z,10.32
2023-01-13T00:43:51.339Z,12.38
2023-01-13T00:46:20.415Z,11.95
2023-01-13T00:48:48.163Z,12.38
2023-01-13T00:51:17.860Z,9.77
2023-01-13T00:53:48.465Z,9.82
2023-01-13T00:56:16.653Z,12.23
2023-01-13T00:58:45.830Z,13.70
2023-01-13T01:01:20.814Z,11.23
2023-01-13T01:03:49.351Z,16.50
2023-01-13T01:06:19.605Z,10.32
2023-01-13T01:08:46.932Z,15.43
2023-01-13T01:11:21.287Z,14.18
2023-01-13T01:13:52.036Z,20.70
2023-01-13T01:16:21.811Z,15.05
2023-01-13T01:18:50.932Z,17.95
2023-01-13T01:21:18.858Z,17.27
2023-01-13T01:23:46.212Z,16.92
2023-01-13T01:26:15.996Z,13.18
2023-01-13T01:28:43.432Z,15.52
2023-01-13T01:31:14.264Z,13.80
2023-01-13T01:33:41.605Z,16.83
2023-01-13T01:36:09.894Z,15.23
2023-01-13T01:38:37.478Z,10.98
2023-01-13T01:41:04.470Z,16.02
2023-01-13T01:44:08.097Z,11.23
2023-01-13T01:46:38.200Z,26.58
2023-01-13T01:49:18.150Z,14.82
2023-01-13T01:52:21.333Z,14.95
2023-01-13T01:55:10.491Z,11.23
2023-01-13T01:57:51.432Z,14.13
2023-01-13T02:00:18.715Z,19.33
2023-01-13T02:02:49.713Z,15.65
2023-01-13T02:05:17.627Z,16.42
2023-01-13T02:07:47.717Z,16.05
2023-01-13T02:10:19.556Z,14.05
2023-01-13T02:12:48.826Z,13.38
2023-01-13T02:15:22.648Z,15.20
2023-01-13T02:18:17.423Z,13.55
2023-01-13T02:23:54.024Z,21.52
2023-01-13T02:26:39.111Z,10.65
2023-01-13T02:29:30.449Z,15.50
2023-01-13T02:32:21.730Z,17.90
2023-01-13T02:35:20.519Z,11.32
2023-01-13T02:37:48.782Z,12.85
2023-01-13T02:40:56.779Z,17.05
2023-01-13T02:43:45.052Z,16.17
2023-01-13T02:46:22.423Z,13.05
2023-01-13T02:48:52.838Z,9.43
2023-01-13T02:51:24.116Z,13.98
2023-01-13T02:54:14.315Z,16.85
2023-01-13T02:56:46.781Z,18.83
2023-01-13T02:59:14.595Z,9.30
2023-01-13T03:01:43.297Z,12.77
2023-01-13T03:04:15.864Z,15.48
2023-01-13T03:06:45.481Z,13.30
2023-01-13T03:09:29.925Z,11.43
2023-01-13T03:14:47.976Z,17.75
2023-01-13T03:17:37.384Z,16.95
2023-01-13T03:20:32.073Z,15.73
2023-01-13T03:25:54.392Z,19.50
2023-01-13T03:28:29.684Z,22.80
2023-01-13T03:31:08.126Z,22.48
2023-01-13T03:33:45.420Z,21.48
2023-01-13T03:36:15.038Z,28.90
2023-01-13T03:38:51.149Z,16.83
2023-01-13T03:41:26.376Z,21.90
2023-01-13T03:44:23.953Z,19.90
2023-01-13T03:47:13.862Z,22.88
2023-01-13T03:50:14.342Z,18.50
2023-01-13T03:53:06.755Z,15.68
2023-01-13T03:55:40.194Z,21.55
2023-01-13T03:58:30.577Z,24.95
2023-01-13T04:01:12.221Z,11.73
2023-01-13T04:03:45.273Z,13.73
2023-01-13T04:06:30.346Z,26.80
2023-01-13T04:09:18.740Z,23.55
2023-01-13T04:11:53.786Z,20.10
2023-01-13T04:14:22.860Z,21.90
2023-01-13T04:16:49.990Z,20.17
2023-01-13T04:19:17.041Z,22.00
2023-01-13T04:21:44.304Z,25.42
2023-01-13T04:24:11.296Z,20.52
2023-01-13T04:26:38.198Z,20.52
2023-01-13T04:29:05.181Z,17.30
2023-01-13T04:31:32.135Z,20.27
2023-01-13T04:33:59.176Z,21.63
2023-01-13T04:36:27.772Z,21.02
2023-01-13T04:38:55.281Z,25.88
2023-01-13T04:41:22.226Z,22.35
2023-01-13T04:43:49.237Z,18.23
2023-01-13T04:46:16.198Z,21.67
2023-01-13T04:48:43.169Z,25.15
2023-01-13T04:51:10.141Z,27.05
2023-01-13T04:53:37.119Z,26.08
2023-01-13T04:56:04.152Z,14.80
2023-01-13T04:58:31.142Z,30.98
2023-01-13T05:00:58.118Z,29.80
2023-01-13T05:03:26.810Z,19.48
2023-01-13T05:05:53.812Z,27.10
2023-01-13T05:08:20.770Z,27.73
2023-01-13T05:10:47.758Z,25.52
2023-01-13T05:13:33.177Z,22.02
2023-01-13T05:16:19.787Z,18.08
2023-01-13T05:18:46.923Z,28.13
2023-01-13T05:21:33.859Z,16.95
2023-01-13T05:24:19.432Z,23.77
2023-01-13T05:26:46.445Z,17.95
2023-01-13T05:29:13.451Z,28.88
2023-01-13T05:31:40.731Z,27.90
2023-01-13T05:34:07.722Z,26.00
2023-01-13T05:36:34.732Z,25.25
2023-01-13T05:39:01.695Z,26.45
2023-01-13T05:41:47.429Z,18.52
2023-01-13T05:44:14.435Z,28.70
2023-01-13T05:46:42.043Z,18.23
2023-01-13T05:49:09.085Z,27.98
2023-01-13T05:51:36.036Z,17.80
2023-01-13T05:54:03.047Z,15.48
2023-01-13T05:56:30.046Z,21.23
2023-01-13T05:58:57.044Z,23.10
2023-01-13T06:01:23.992Z,21.35
2023-01-13T06:03:50.976Z,26.65
2023-01-13T06:06:17.989Z,24.02
2023-01-13T06:08:44.957Z,19.20
2023-01-13T06:11:11.964Z,21.33
2023-01-13T06:13:38.971Z,18.98
2023-01-13T06:16:06.309Z,18.83
2023-01-13T06:18:33.348Z,22.50
2023-01-13T06:21:00.352Z,20.73
2023-01-13T06:23:27.329Z,18.52
2023-01-13T06:26:19.048Z,20.08
2023-01-13T06:28:46.115Z,15.35
2023-01-13T06:31:13.164Z,18.58
2023-01-13T06:33:48.690Z,25.05
2023-01-13T06:36:22.560Z,23.50
2023-01-13T06:38:54.280Z,25.55
2023-01-13T06:41:40.339Z,28.35
2023-01-13T06:44:07.523Z,21.67
2023-01-13T06:46:35.683Z,28.80
2023-01-13T06:49:02.768Z,27.83
2023-01-13T06:51:29.800Z,23.75
2023-01-13T06:53:56.794Z,27.35
2023-01-13T06:56:23.961Z,27.23
2023-01-13T06:58:51.006Z,31.52
2023-01-13T07:01:18.040Z,23.75
2023-01-13T07:03:45.081Z,21.58
2023-01-13T07:06:12.084Z,23.95
2023-01-13T07:08:39.043Z,24.13
2023-01-13T07:11:06.235Z,26.42
2023-01-13T07:13:54.023Z,24.70
2023-01-13T07:16:21.142Z,16.15
2023-01-13T07:18:48.094Z,30.52
2023-01-13T07:21:18.880Z,20.85
2023-01-13T07:23:47.609Z,17.63
2023-01-13T07:26:16.207Z,24.95
2023-01-13T07:28:43.611Z,24.35
2023-01-13T07:31:19.003Z,22.60
2023-01-13T07:33:46.491Z,25.15
2023-01-13T07:36:14.385Z,16.50
2023-01-13T07:38:41.543Z,31.35
2023-01-13T07:41:31.593Z,21.17
2023-01-13T07:44:00.313Z,17.08
2023-01-13T07:46:27.535Z,22.65
2023-01-13T07:48:54.557Z,21.63
2023-01-13T07:51:21.477Z,25.92
2023-01-13T07:53:49.014Z,29.38
2023-01-13T07:56:15.988Z,24.00
2023-01-13T07:58:43.030Z,28.67
2023-01-13T08:01:14.115Z,29.85
2023-01-13T08:03:41.294Z,30.85
2023-01-13T08:06:08.532Z,21.30
2023-01-13T08:08:35.891Z,20.98
2023-01-13T08:11:04.227Z,25.02
2023-01-13T08:13:31.715Z,34.20
2023-01-13T08:16:17.080Z,24.05
2023-01-13T08:18:44.209Z,25.80
2023-01-13T08:21:13.975Z,32.47
2023-01-13T08:23:42.531Z,38.45
2023-01-13T08:26:13.542Z,21.85
2023-01-13T08:28:40.663Z,19.33
2023-01-13T08:31:10.743Z,17.35
2023-01-13T08:33:37.920Z,19.73
2023-01-13T08:36:07.983Z,24.20
2023-01-13T08:38:36.520Z,21.17
2023-01-13T08:41:14.468Z,20.48
2023-01-13T08:43:41.883Z,27.80
2023-01-13T08:46:09.129Z,23.85
2023-01-13T08:48:36.221Z,24.30
2023-01-13T08:51:06.126Z,20.23
2023-01-13T08:53:33.232Z,38.17
2023-01-13T08:56:00.205Z,23.13
2023-01-13T08:58:27.477Z,20.52
2023-01-13T09:00:54.629Z,18.25
2023-01-13T09:03:21.705Z,30.60
2023-01-13T09:05:48.753Z,30.23
2023-01-13T09:08:15.815Z,40.45
2023-01-13T09:10:42.802Z,28.75
2023-01-13T09:13:13.620Z,25.42
2023-01-13T09:15:42.456Z,42.15
2023-01-13T09:18:09.584Z,28.50
2023-01-13T09:20:37.036Z,39.13
2023-01-13T09:23:05.673Z,28.10
2023-01-13T09:25:36.584Z,30.10
2023-01-13T09:28:05.116Z,33.03
2023-01-13T09:30:32.371Z,28.85
2023-01-13T09:33:28.827Z,35.33
2023-01-13T09:35:59.351Z,25.13
2023-01-13T09:38:26.405Z,35.38
2023-01-13T09:40:54.715Z,32.95
2023-01-13T09:43:47.583Z,24.83
2023-01-13T09:46:49.339Z,25.95
2023-01-13T09:49:31.203Z,28.30
2023-01-13T09:52:15.653Z,27.65
2023-01-13T09:57:19.334Z,36.33
2023-01-13T09:59:46.712Z,31.95
2023-01-13T10:02:32.147Z,33.92
2023-01-13T10:05:36.977Z,40.00
2023-01-13T10:08:25.971Z,47.03
2023-01-13T10:10:59.759Z,36.58
2023-01-13T10:13:26.779Z,35.38
2023-01-13T10:16:07.067Z,34.08
2023-01-13T10:19:00.704Z,28.48
2023-01-13T10:21:36.550Z,35.55
2023-01-13T10:24:16.248Z,36.25
2023-01-13T10:27:07.558Z,28.95
2023-01-13T10:29:36.986Z,37.45
2023-01-13T10:32:04.396Z,34.83
2023-01-13T10:34:31.476Z,32.85
2023-01-13T10:37:06.601Z,26.15
2023-01-13T10:39:45.066Z,36.83
2023-01-13T10:42:18.115Z,31.17
2023-01-13T10:44:59.006Z,32.60
2023-01-13T10:47:29.277Z,33.00
2023-01-13T10:50:10.970Z,34.50
2023-01-13T10:52:43.461Z,33.00
2023-01-13T10:55:26.019Z,35.92
2023-01-13T10:57:53.124Z,31.95
2023-01-13T11:00:28.603Z,33.08
2023-01-13T11:03:22.543Z,29.60
2023-01-13T11:06:00.269Z,31.88
2023-01-13T11:08:40.181Z,30.48
2023-01-13T11:11:33.849Z,29.88
2023-01-13T11:14:23.961Z,26.88
2023-01-13T11:16:55.275Z,34.80
2023-01-13T11:19:27.601Z,23.85
2023-01-13T11:22:12.342Z,26.52
2023-01-13T11:24:51.241Z,31.70
2023-01-13T11:27:33.786Z,25.48
2023-01-13T11:30:21.168Z,27.35
2023-01-13T11:33:14.441Z,21.92
2023-01-13T11:36:14.421Z,24.45
2023-01-13T11:38:52.122Z,32.35
2023-01-13T11:41:29.800Z,29.90
2023-01-13T11:44:28.432Z,29.95
2023-01-13T11:46:55.621Z,34.33
2023-01-13T11:49:27.042Z,32.30
2023-01-13T11:52:23.694Z,24.25
2023-01-13T11:55:22.674Z,22.85
2023-01-13T11:58:07.494Z,28.50
2023-01-13T12:01:05.698Z,33.83
2023-01-13T12:03:38.513Z,28.80
2023-01-13T12:06:37.937Z,33.03
2023-01-13T12:09:23.056Z,26.85
2023-01-13T12:12:19.879Z,24.00
2023-01-13T12:15:15.677Z,34.35
2023-01-13T12:18:01.541Z,28.10
2023-01-13T12:20:47.060Z,31.25
2023-01-13T12:23:29.176Z,24.38
2023-01-13T12:26:10.311Z,22.05
2023-01-13T12:28:53.479Z,25.67
2023-01-13T12:31:22.186Z,31.02
2023-01-13T12:33:59.601Z,28.02
2023-01-13T12:36:42.258Z,20.92
2023-01-13T12:39:15.005Z,24.35
2023-01-13T12:42:10.655Z,23.70
2023-01-13T12:44:37.765Z,23.58
2023-01-13T12:47:04.730Z,25.60
2023-01-13T12:49:36.646Z,25.55
2023-01-13T12:52:12.594Z,28.80
2023-01-13T12:54:39.594Z,28.83
2023-01-13T12:57:22.178Z,24.83
2023-01-13T13:00:04.031Z,21.35
2023-01-13T13:02:36.953Z,27.52
2023-01-13T13:05:25.112Z,27.55
2023-01-13T13:08:19.227Z,27.42
2023-01-13T13:11:32.508Z,27.33
2023-01-13T13:14:05.695Z,21.73
2023-01-13T13:16:44.301Z,28.33
2023-01-13T13:19:21.264Z,28.52
2023-01-13T13:22:12.993Z,25.80
2023-01-13T13:25:03.653Z,29.45
2023-01-13T13:28:09.336Z,21.27
2023-01-13T13:30:39.524Z,27.23
2023-01-13T13:33:09.489Z,23.40
2023-01-13T13:35:51.830Z,31.50
2023-01-13T13:38:52.492Z,28.02
2023-01-13T13:41:43.820Z,27.02
2023-01-13T13:44:48.259Z,23.02
2023-01-13T13:47:15.283Z,24.95
2023-01-13T13:49:46.046Z,27.92
2023-01-13T13:52:30.321Z,28.13
2023-01-13T13:57:39.461Z,21.63
2023-01-13T14:00:18.935Z,28.73
2023-01-13T14:02:58.962Z,22.70
2023-01-13T14:05:37.351Z,20.90
2023-01-13T14:08:17.459Z,22.63
2023-01-13T14:10:46.280Z,30.50
2023-01-13T14:13:25.182Z,22.52
2023-01-13T14:16:06.874Z,21.55
2023-01-13T14:18:42.888Z,27.02
2023-01-13T14:21:19.878Z,23.48
2023-01-13T14:24:05.628Z,19.98
2023-01-13T14:26:32.711Z,32.33
2023-01-13T14:29:02.027Z,23.50
2023-01-13T14:31:30.100Z,20.55
2023-01-13T14:33:59.655Z,24.92
2023-01-13T14:36:36.787Z,26.20
2023-01-13T14:39:03.705Z,23.95
2023-01-13T14:41:37.103Z,27.20
2023-01-13T14:44:34.659Z,27.15
2023-01-13T14:47:16.758Z,23.95
2023-01-13T14:50:04.973Z,32.67
2023-01-13T14:52:37.693Z,27.13
2023-01-13T14:55:10.140Z,28.75
2023-01-13T14:57:39.685Z,32.40
2023-01-13T15:00:15.971Z,25.13
2023-01-13T15:02:58.285Z,31.02
2023-01-13T15:05:30.115Z,29.70
2023-01-13T15:07:59.293Z,28.42
2023-01-13T15:10:35.064Z,28.08
2023-01-13T15:13:05.531Z,32.17
2023-01-13T15:15:37.892Z,32.42
2023-01-13T15:18:17.098Z,32.85
2023-01-13T15:20:44.803Z,31.00
2023-01-13T15:23:12.027Z,35.13
2023-01-13T15:25:42.753Z,35.03
2023-01-13T15:28:21.564Z,31.33
2023-01-13T15:30:50.526Z,44.42
2023-01-13T15:33:18.496Z,34.88
2023-01-13T15:35:47.954Z,39.63
2023-01-13T15:38:18.670Z,39.22
2023-01-13T15:40:47.088Z,27.80
2023-01-13T15:43:34.828Z,31.98
2023-01-13T15:46:22.893Z,39.22
2023-01-13T15:48:54.925Z,37.25
2023-01-13T15:51:22.094Z,27.35
2023-01-13T15:53:49.121Z,34.13
2023-01-13T15:56:23.672Z,40.00
2023-01-13T15:58:50.715Z,36.38
2023-01-13T16:01:17.845Z,48.45
2023-01-13T16:03:45.060Z,31.50
2023-01-13T16:06:27.739Z,40.55
2023-01-13T16:08:54.783Z,19.48
2023-01-13T16:11:21.680Z,48.58
2023-01-13T16:13:48.698Z,39.85
2023-01-13T16:16:27.699Z,33.88
2023-01-13T16:18:55.263Z,40.33
2023-01-13T16:21:22.829Z,32.03
2023-01-13T16:23:50.976Z,36.60
2023-01-13T16:26:24.471Z,45.10
2023-01-13T16:28:53.525Z,37.78
2023-01-13T16:31:31.938Z,51.22
2023-01-13T16:34:00.756Z,42.10
2023-01-13T16:36:29.409Z,39.13
2023-01-13T16:38:57.475Z,32.75
2023-01-13T16:41:27.460Z,39.17
2023-01-13T16:43:54.695Z,32.97
2023-01-13T16:46:25.060Z,36.65
2023-01-13T16:48:57.944Z,39.38
2023-01-13T16:51:25.250Z,35.03
2023-01-13T16:53:52.234Z,36.63
2023-01-13T16:56:35.537Z,35.50
2023-01-13T16:59:13.524Z,46.83
2023-01-13T17:01:43.121Z,42.55
2023-01-13T17:04:16.029Z,41.22
2023-01-13T17:07:01.042Z,40.70
2023-01-13T17:09:29.159Z,43.05
2023-01-13T17:11:56.901Z,32.50
2023-01-13T17:14:24.764Z,39.28
2023-01-13T17:16:54.684Z,37.45
2023-01-13T17:19:22.779Z,44.78
2023-01-13T17:21:51.208Z,50.88
2023-01-13T17:24:18.627Z,42.22
2023-01-13T17:26:50.944Z,35.60
2023-01-13T17:29:25.096Z,47.58
2023-01-13T17:31:53.009Z,46.50
2023-01-13T17:34:21.273Z,40.55
2023-01-13T17:36:48.675Z,30.67
2023-01-13T17:39:24.406Z,41.55
2023-01-13T17:41:53.074Z,39.10
2023-01-13T17:44:21.917Z,40.28
2023-01-13T17:46:49.455Z,30.35
2023-01-13T17:49:19.943Z,45.65
2023-01-13T17:51:51.213Z,32.65
2023-01-13T17:54:19.162Z,42.33
2023-01-13T17:56:46.250Z,35.30
2023-01-13T17:59:14.838Z,40.95
2023-01-13T18:01:42.279Z,37.47
2023-01-13T18:04:21.033Z,34.72
2023-01-13T18:06:48.900Z,37.88
2023-01-13T18:09:16.383Z,36.88
2023-01-13T18:11:44.235Z,31.08
2023-01-13T18:14:12.377Z,47.60
2023-01-13T18:16:39.529Z,34.85
2023-01-13T18:19:25.276Z,48.78
2023-01-13T18:22:11.083Z,44.50
2023-01-13T18:24:56.563Z,36.72
2023-01-13T18:27:35.185Z,39.35
2023-01-13T18:30:04.796Z,35.88
2023-01-13T18:32:33.569Z,34.25
2023-01-13T18:35:06.410Z,48.30
2023-01-13T18:37:38.835Z,48.20
2023-01-13T18:40:09.428Z,41.55
2023-01-13T18:42:54.110Z,57.25
2023-01-13T18:45:32.123Z,47.85
2023-01-13T18:48:01.372Z,47.00
2023-01-13T18:50:29.187Z,37.72
2023-01-13T18:52:56.739Z,37.75
2023-01-13T18:55:24.108Z,42.55
2023-01-13T18:57:51.500Z,44.33
2023-01-13T19:00:20.643Z,42.15
2023-01-13T19:05:34.458Z,50.53
2023-01-13T19:08:02.062Z,43.97
2023-01-13T19:10:32.128Z,41.72
2023-01-13T19:12:59.240Z,26.38
2023-01-13T19:15:26.175Z,45.05
2023-01-13T19:17:53.124Z,38.92
2023-01-13T19:20:20.289Z,42.63
2023-01-13T19:22:53.909Z,42.20
2023-01-13T19:25:21.052Z,43.33
2023-01-13T19:27:48.059Z,34.67
2023-01-13T19:30:15.111Z,34.58
2023-01-13T19:32:42.092Z,29.88
2023-01-13T19:35:09.397Z,37.00
2023-01-13T19:37:36.998Z,43.17
2023-01-13T19:40:09.276Z,40.38
2023-01-13T19:42:55.337Z,38.58
2023-01-13T19:45:28.323Z,35.67
2023-01-13T19:47:56.606Z,43.03
2023-01-13T19:50:24.273Z,46.20
2023-01-13T19:52:51.435Z,41.45
2023-01-13T19:55:19.783Z,33.15
2023-01-13T19:57:46.907Z,28.77
2023-01-13T20:00:20.521Z,44.30
2023-01-13T20:02:49.687Z,36.33
2023-01-13T20:05:21.381Z,36.47
2023-01-13T20:07:50.083Z,47.03
2023-01-13T20:10:18.517Z,34.78
2023-01-13T20:12:45.733Z,37.17
2023-01-13T20:15:12.752Z,47.15
2023-01-13T20:17:41.383Z,35.53
2023-01-13T20:20:09.762Z,33.58
2023-01-13T20:22:38.074Z,40.83
2023-01-13T20:25:05.435Z,26.48
2023-01-13T20:27:32.647Z,40.92
2023-01-13T20:29:59.587Z,37.05
2023-01-13T20:32:26.641Z,43.88
2023-01-13T20:34:53.774Z,33.08
2023-01-13T20:37:20.818Z,32.25
2023-01-13T20:39:48.281Z,40.05
2023-01-13T20:42:31.628Z,33.25
2023-01-13T20:45:01.705Z,32.45
2023-01-13T20:47:29.844Z,31.95
2023-01-13T20:49:57.128Z,30.75
2023-01-13T20:52:24.705Z,39.03
2023-01-13T20:54:51.794Z,42.90
2023-01-13T20:57:18.941Z,27.95
2023-01-13T20:59:45.935Z,40.08
2023-01-13T21:02:15.061Z,30.65
2023-01-13T21:04:42.638Z,26.80
2023-01-13T21:07:10.177Z,42.97
2023-01-13T21:09:37.395Z,46.05
2023-01-13T21:12:23.418Z,31.58
2023-01-13T21:15:08.773Z,39.95
2023-01-13T21:17:54.250Z,30.73
2023-01-13T21:20:21.349Z,42.15
2023-01-13T21:22:49.243Z,38.95
2023-01-13T21:25:17.736Z,28.95
2023-01-13T21:27:46.151Z,34.58
2023-01-13T21:30:15.063Z,26.15
2023-01-13T21:32:43.418Z,33.00
2023-01-13T21:35:11.799Z,28.98
2023-01-13T21:37:40.166Z,27.92
2023-01-13T21:40:10.299Z,39.53
2023-01-13T21:42:56.032Z,25.15
2023-01-13T21:45:41.725Z,25.95
2023-01-13T21:48:09.220Z,25.05
2023-01-13T21:50:38.217Z,25.33
2023-01-13T21:53:07.402Z,34.95
2023-01-13T21:55:36.643Z,34.72
2023-01-13T21:58:14.525Z,28.42
2023-01-13T22:00:43.587Z,28.50
2023-01-13T22:03:12.492Z,21.63
2023-01-13T22:05:40.136Z,28.92
2023-01-13T22:08:07.871Z,38.70
2023-01-13T22:10:35.377Z,25.75
2023-01-13T22:13:23.496Z,23.23
2023-01-13T22:15:50.565Z,19.30
2023-01-13T22:18:20.321Z,30.33
2023-01-13T22:20:48.777Z,25.58
2023-01-13T22:23:15.776Z,39.63
2023-01-13T22:25:42.726Z,28.60
2023-01-13T22:28:13.773Z,29.90
2023-01-13T22:30:40.881Z,24.58
2023-01-13T22:33:07.814Z,21.33
2023-01-13T22:35:34.837Z,27.52
2023-01-13T22:38:01.746Z,19.23
2023-01-13T22:40:28.775Z,20.90
2023-01-13T22:42:55.755Z,17.85
2023-01-13T22:45:22.797Z,26.65
2023-01-13T22:47:49.899Z,36.10
2023-01-13T22:50:20.747Z,25.33
2023-01-13T22:52:47.865Z,19.20
2023-01-13T22:55:15.032Z,21.08
2023-01-13T22:57:47.615Z,20.63
2023-01-13T23:00:19.035Z,33.53
2023-01-13T23:02:46.516Z,28.30
2023-01-13T23:05:13.986Z,38.40
2023-01-13T23:07:41.362Z,26.67
2023-01-13T23:10:08.971Z,23.80
2023-01-13T23:12:35.998Z,28.73
2023-01-13T23:15:03.562Z,17.00
2023-01-13T23:17:30.845Z,21.08
2023-01-13T23:19:57.829Z,27.75
2023-01-13T23:22:24.844Z,16.85
2023-01-13T23:24:51.824Z,14.48
2023-01-13T23:27:18.942Z,19.60
2023-01-13T23:29:45.898Z,19.48
2023-01-13T23:32:12.886Z,30.98
2023-01-13T23:34:39.831Z,23.42
2023-01-13T23:37:06.812Z,18.90
2023-01-13T23:39:33.734Z,22.38
2023-01-13T23:42:00.913Z,25.17
2023-01-13T23:44:27.898Z,18.88
2023-01-13T23:46:54.932Z,29.73
2023-01-13T23:49:21.943Z,19.35
2023-01-13T23:51:52.263Z,24.30
2023-01-13T23:54:19.542Z,29.63
2023-01-13T23:56:46.475Z,33.55
2023-01-13T23:59:13.474Z,20.98
